Latest Weather Observations for Point Perpendicular

IDN60801

Issued at 2:35 pm EST Tuesday 16 September 2014 (issued every 30 minutes, with the page automatically refreshed every 10 minutes)

About weather observations | Map of weather stations | Latest weather observations for NSW | Other Formats
Station Details ID: 068151 Name: POINT PERPENDICULAR AWS Lat: -35.09 Lon: 150.80 Height: 85.0 m
Data from the previous 72 hours. | See also: Recent months at Point Perpendicular
Date/Time
EST
Temp
°C
App
Temp
°C
Dew
Point
Rel
Hum
%
Delta-T
°C
Wind Press
QNH
hPa
Press
MSL
hPa
Rain
since 9 am
mm
Dir
 
Spd
km/h
Gust
km/h
Spd
kts
Gust
kts
16/02:30pm 18.5 17.2 17.3 93 0.7 NNE 20 32 11 17 1005.7 1005.6 5.0
16/02:00pm 16.8 14.8 15.0 89 1.0 N 19 28 10 15 1006.4 1006.3 3.6
16/01:30pm 18.9 15.8 13.5 71 3.1 N 22 35 12 19 1006.1 1006.0 0.0
16/01:00pm 20.9 18.4 14.1 65 4.0 N 20 30 11 16 1006.3 1006.2 0.0
16/12:30pm 21.2 19.0 14.8 67 3.8 N 20 30 11 16 1007.3 1007.2 0.0
16/12:00pm 20.6 17.6 14.9 70 3.4 N 24 33 13 18 1007.8 1007.7 0.0
16/11:30am 19.9 16.9 14.9 73 2.9 N 24 41 13 22 1008.4 1008.3 0.0
16/11:00am 19.9 16.9 14.9 73 2.9 N 24 35 13 19 1009.1 1009.0 0.0
16/10:30am 18.3 16.0 14.2 77 2.4 N 19 26 10 14 1009.9 1009.8 0.0
16/10:00am 18.5 16.4 14.6 78 2.3 N 19 32 10 17 1009.9 1009.8 0.0
16/09:30am 17.2 14.8 14.3 83 1.7 N 20 32 11 17 1010.2 1010.1 0.0
16/09:00am 17.8 15.1 14.7 82 1.8 N 22 33 12 18 1010.5 1010.4 4.4
16/08:30am 17.0 14.6 14.5 85 1.4 N 20 32 11 17 1010.6 1010.5 4.4
16/08:00am 16.3 13.9 14.5 89 1.0 N 20 28 11 15 1010.8 1010.7 4.4
16/07:30am 16.2 13.5 14.6 90 0.9 NNE 22 30 12 16 1010.7 1010.6 4.4
16/07:00am 15.0 12.6 13.7 92 0.7 NNE 19 30 10 16 1010.7 1010.6 4.4
16/06:30am 14.7 12.2 13.4 92 0.7 NE 19 26 10 14 1010.8 1010.7 4.4
16/06:00am 14.2 13.1 13.2 94 0.6 N 11 17 6 9 1012.2 1012.1 4.4
16/05:30am 14.7 13.2 13.2 91 0.8 N 13 22 7 12 1013.0 1012.9 4.2
16/05:00am 14.4 12.6 13.3 93 0.6 N 15 26 8 14 1012.3 1012.2 4.2
16/04:30am 14.6 11.9 13.5 93 0.6 NNE 20 30 11 16 1011.8 1011.7 4.2
16/04:00am 14.6 12.6 14.0 96 0.3 N 17 26 9 14 1012.1 1012.0 4.2
16/03:30am 14.4 11.9 13.6 95 0.4 NNE 19 24 10 13 1011.8 1011.7 4.0
16/03:00am 14.7 12.7 13.9 95 0.5 NNE 17 26 9 14 1012.6 1012.5 4.0
16/02:30am 14.7 12.8 14.2 97 0.3 NNE 17 26 9 14 1012.7 1012.6 4.0
16/02:00am 14.4 12.4 13.9 97 0.3 NNE 17 22 9 12 1012.7 1012.6 4.0
16/01:30am 14.3 13.8 13.8 97 0.3 NNE 9 13 5 7 1013.7 1013.6 4.0
16/01:00am 14.4 12.8 13.8 96 0.3 NNE 15 22 8 12 1014.0 1013.9 3.8
16/12:30am 14.3 13.0 13.7 96 0.3 NNE 13 20 7 11 1014.2 1014.1 3.2
16/12:00am 14.2 12.8 13.4 95 0.4 N 13 17 7 9 1014.9 1014.8 2.6
 
Date/Time
EST
Temp
°C
App
Temp
°C
Dew
Point
Rel
Hum
%
Delta-T
°C
Wind Press
QNH
hPa
Press
MSL
hPa
Rain
since 9 am
mm
Dir
 
Spd
km/h
Gust
km/h
Spd
kts
Gust
kts
15/11:30pm 14.9 13.5 13.4 91 0.8 N 13 20 7 11 1015.3 1015.2 0.2
15/11:00pm 15.5 13.1 12.8 84 1.5 N 17 24 9 13 1015.4 1015.3 0.0
15/10:30pm 15.9 12.4 12.1 78 2.1 N 22 30 12 16 1015.4 1015.3 0.0
15/10:00pm 15.8 12.6 12.0 78 2.1 NNE 20 30 11 16 1015.4 1015.3 0.0
15/09:30pm 15.8 12.6 12.0 78 2.1 NNE 20 28 11 15 1015.8 1015.7 0.0
15/09:00pm 15.3 12.2 11.5 78 2.0 NNE 19 26 10 14 1015.9 1015.8 0.0
15/08:30pm 15.2 12.4 11.4 78 2.0 N 17 26 9 14 1016.0 1015.9 0.0
15/08:00pm 15.2 12.1 11.6 79 1.9 NNE 19 26 10 14 1015.7 1015.6 0.0
15/07:30pm 15.3 12.4 11.1 76 2.2 NNE 17 26 9 14 1015.8 1015.7 0.0
15/07:00pm 15.7 12.5 11.1 74 2.5 NNE 19 28 10 15 1015.6 1015.5 0.0
15/06:30pm 15.6 13.1 11.2 75 2.4 NNE 15 24 8 13 1015.4 1015.3 0.0
15/06:00pm 15.5 12.6 10.9 74 2.5 NE 17 24 9 13 1015.4 1015.3 0.0
15/05:30pm 16.1 13.5 10.8 71 2.8 NE 15 22 8 12 1015.2 1015.1 0.0
15/05:00pm 16.6 13.3 10.9 69 3.1 NE 19 28 10 15 1015.2 1015.1 0.0
15/04:30pm 16.7 13.8 11.0 69 3.1 NE 17 24 9 13 1015.1 1015.0 0.0
15/04:00pm 17.5 14.5 10.6 64 3.7 NE 17 28 9 15 1015.2 1015.1 0.0
15/03:30pm 17.7 14.7 10.8 64 3.7 NE 17 26 9 14 1015.3 1015.2 0.0
15/03:00pm 17.5 14.6 11.1 66 3.5 NE 17 24 9 13 1015.3 1015.2 0.0
15/02:30pm 18.0 14.7 10.9 63 3.8 ENE 19 26 10 14 1015.4 1015.3 0.0
15/02:00pm 17.7 14.7 10.8 64 3.7 ENE 17 26 9 14 1015.5 1015.4 0.0
15/01:30pm 18.1 15.1 10.7 62 4.0 ENE 17 24 9 13 1015.9 1015.8 0.0
15/01:00pm 18.2 15.7 11.0 63 3.9 ENE 15 22 8 12 1016.3 1016.2 0.0
15/12:30pm 17.6 15.1 11.2 66 3.5 E 15 20 8 11 1016.6 1016.5 0.0
15/12:00pm 17.7 15.4 10.6 63 3.8 ENE 13 22 7 12 1017.0 1016.9 0.0
15/11:30am 17.5 15.5 11.5 68 3.3 E 13 20 7 11 1017.2 1017.1 0.0
15/11:00am 15.9 14.0 10.4 70 2.9 E 11 20 6 11 1017.7 1017.6 0.0
15/10:30am 15.2 13.7 10.4 73 2.5 ESE 9 17 5 9 1018.1 1018.0 0.0
15/10:00am 15.5 15.3 10.5 72 2.6 N 2 7 1 4 1018.1 1018.0 0.0
15/09:30am 14.9 14.3 10.3 74 2.4 S 4 9 2 5 1018.4 1018.3 0.0
15/09:00am 15.4 15.2 10.6 73 2.5 WNW 2 9 1 5 1018.7 1018.6 0.0
15/08:30am 15.0 14.0 11.0 77 2.1 W 7 11 4 6 1018.7 1018.6 0.0
15/08:00am 14.5 14.2 11.5 82 1.6 WSW 4 6 2 3 1018.6 1018.5 0.0
15/07:30am 13.8 13.3 12.2 90 0.9 WNW 6 9 3 5 1018.6 1018.5 0.0
15/07:00am 13.5 13.0 12.1 91 0.8 WNW 6 7 3 4 1018.5 1018.4 0.0
15/06:30am 13.3 12.7 12.2 93 0.6 NW 7 9 4 5 1018.3 1018.2 0.0
15/06:00am 13.0 12.1 11.2 89 1.0 W 7 7 4 4 1018.1 1018.0 0.0
15/05:30am 12.1 11.4 8.4 78 1.8 N 2 7 1 4 1018.0 1017.9 0.0
15/05:00am 13.5 13.3 9.2 75 2.2 CALM 0 0 0 0 1017.7 1017.6 0.0
15/04:30am 13.6 13.4 9.1 74 2.3 CALM 0 0 0 0 1017.9 1017.8 0.0
15/04:00am 14.3 13.3 8.9 70 2.7 SSE 4 6 2 3 1018.1 1018.0 0.0
15/03:30am 14.6 13.1 9.0 69 2.9 SE 7 9 4 5 1018.1 1018.0 0.0
15/03:00am 14.7 13.4 9.3 70 2.8 SE 6 9 3 5 1018.3 1018.2 0.0
15/02:30am 14.8 13.6 9.4 70 2.8 ESE 6 9 3 5 1018.3 1018.2 0.0
15/02:00am 14.9 13.2 9.7 71 2.7 SE 9 15 5 8 1018.5 1018.4 0.0
15/01:30am 14.6 13.2 9.4 71 2.7 ESE 7 11 4 6 1018.6 1018.5 0.0
15/01:00am 14.7 13.3 9.5 71 2.7 ESE 7 11 4 6 1018.8 1018.7 0.0
15/12:30am 14.7 13.4 9.9 73 2.5 SE 7 11 4 6 1019.1 1019.0 0.0
15/12:00am 14.8 13.2 10.2 74 2.4 SE 9 13 5 7 1019.2 1019.1 0.0
 
Date/Time
EST
Temp
°C
App
Temp
°C
Dew
Point
Rel
Hum
%
Delta-T
°C
Wind Press
QNH
hPa
Press
MSL
hPa
Rain
since 9 am
mm
Dir
 
Spd
km/h
Gust
km/h
Spd
kts
Gust
kts
14/11:30pm 14.9 13.4 10.5 75 2.3 SE 9 15 5 8 1019.4 1019.3 0.0
14/11:00pm 15.0 13.1 10.4 74 2.4 SE 11 17 6 9 1019.6 1019.5 0.0
14/10:30pm 15.1 13.2 10.5 74 2.4 SE 11 17 6 9 1019.7 1019.6 0.0
14/10:00pm 15.1 13.1 10.3 73 2.5 SSE 11 15 6 8 1019.7 1019.6 0.0
14/09:30pm 15.3 12.9 9.9 70 2.8 SSE 13 20 7 11 1019.6 1019.5 0.0
14/09:00pm 15.4 13.0 10.2 71 2.7 SE 13 22 7 12 1019.8 1019.7 0.0
14/08:30pm 15.6 14.3 11.2 75 2.4 SSE 9 17 5 9 1019.6 1019.5 0.0
14/08:00pm 15.3 13.8 10.7 74 2.4 S 9 11 5 6 1019.5 1019.4 0.0
14/07:30pm 15.1 13.7 10.9 76 2.2 SSE 9 13 5 7 1019.2 1019.1 0.0
14/07:00pm 15.4 13.7 11.2 76 2.2 SSE 11 15 6 8 1019.1 1019.0 0.0
14/06:30pm 15.4 13.4 11.6 78 2.1 S 13 20 7 11 1018.7 1018.6 0.0
14/06:00pm 15.4 13.8 11.6 78 2.1 S 11 17 6 9 1018.4 1018.3 0.0
14/05:30pm 15.6 14.3 12.5 82 1.7 S 11 20 6 11 1018.1 1018.0 0.0
14/05:00pm 15.7 13.7 12.8 83 1.6 S 15 22 8 12 1017.8 1017.7 0.0
14/04:30pm 15.9 13.5 12.6 81 1.8 S 17 24 9 13 1017.5 1017.4 0.0
14/04:00pm 16.1 13.3 12.5 79 2.0 S 19 28 10 15 1017.3 1017.2 0.0
14/03:30pm 16.3 13.2 12.3 77 2.2 SSE 20 28 11 15 1017.1 1017.0 0.0
14/03:00pm 16.2 12.6 12.0 76 2.3 S 22 28 12 15 1017.0 1016.9 0.0
14/02:30pm 16.2 12.6 12.0 76 2.3 S 22 30 12 16 1016.9 1016.8 0.0
14/02:00pm 16.6 13.2 12.4 76 2.3 S 22 30 12 16 1017.1 1017.0 0.0
14/01:30pm 16.6 13.8 12.6 77 2.2 SSE 19 28 10 15 1017.5 1017.4 0.0
14/01:00pm 16.6 13.8 12.6 77 2.2 S 19 26 10 14 1017.9 1017.8 0.0
14/12:30pm 16.5 14.5 12.7 78 2.1 S 15 24 8 13 1018.1 1018.0 0.0
14/12:00pm 16.0 13.0 12.0 77 2.2 S 19 26 10 14 1018.4 1018.3 0.0
14/11:30am 15.7 12.6 12.1 79 2.0 S 20 26 11 14 1018.9 1018.8 0.0
14/11:00am 15.4 12.7 11.8 79 1.9 S 17 26 9 14 1019.3 1019.2 0.0
14/10:30am 15.3 12.7 11.9 80 1.8 S 17 22 9 12 1019.5 1019.4 0.0
14/10:00am 15.7 13.6 12.3 80 1.9 SSW 15 24 8 13 1019.8 1019.7 0.0
14/09:30am 14.8 11.4 11.4 80 1.8 SSW 20 30 11 16 1019.9 1019.8 0.0
14/09:00am 15.3 12.3 10.5 73 2.5 W 17 22 9 12 1020.1 1020.0 0.0
14/08:30am 16.1 13.8 10.6 70 2.9 NW 13 22 7 12 1019.8 1019.7 0.0
14/08:00am 15.2 12.7 11.2 77 2.1 NW 15 24 8 13 1019.8 1019.7 0.0
14/07:30am 14.3 12.7 11.5 83 1.5 NW 11 17 6 9 1019.7 1019.6 0.0
14/07:00am 13.2 11.9 11.4 89 1.0 NNW 9 15 5 8 1019.7 1019.6 0.0
14/06:30am 12.7 12.2 10.8 88 1.0 NW 4 7 2 4 1019.6 1019.5 0.0
14/06:00am 12.8 11.4 11.0 89 0.9 NW 9 11 5 6 1019.9 1019.8 0.0
14/05:30am 12.4 11.1 11.3 93 0.6 NW 9 13 5 7 1019.5 1019.4 0.0
14/05:00am 12.2 10.2 11.6 96 0.3 NW 13 15 7 8 1019.4 1019.3 0.0
14/04:30am 11.9 10.2 11.1 95 0.4 WNW 11 13 6 7 1019.7 1019.6 0.0
14/04:00am 12.2 10.9 11.3 94 0.5 NW 9 11 5 6 1019.6 1019.5 0.0
14/03:30am 12.4 11.1 11.3 93 0.6 NW 9 11 5 6 1019.7 1019.6 0.0
14/03:00am 12.4 11.1 11.3 93 0.6 NW 9 11 5 6 1019.9 1019.8 0.0
14/02:30am 12.3 10.6 11.2 93 0.6 NNW 11 11 6 6 1020.2 1020.1 0.0
14/02:00am 12.3 11.0 11.4 94 0.5 N 9 11 5 6 1020.4 1020.3 0.0
14/01:30am 13.1 11.6 11.8 92 0.7 N 11 13 6 7 1020.8 1020.7 0.0
14/01:00am 13.4 11.5 11.8 90 0.9 N 13 15 7 8 1021.2 1021.1 0.0
14/12:30am 14.0 11.8 12.0 88 1.1 N 15 20 8 11 1021.5 1021.5 0.0
14/12:00am 14.2 11.7 12.2 88 1.1 N 17 28 9 15 1021.7 1021.7 0.0
 
Date/Time
EST
Temp
°C
App
Temp
°C
Dew
Point
Rel
Hum
%
Delta-T
°C
Wind Press
QNH
hPa
Press
MSL
hPa
Rain
since 9 am
mm
Dir
 
Spd
km/h
Gust
km/h
Spd
kts
Gust
kts
13/11:30pm 14.2 11.6 11.9 86 1.2 N 17 24 9 13 1021.9 1021.9 0.0
13/11:00pm 14.1 11.5 12.0 87 1.1 N 17 24 9 13 1022.2 1022.2 0.0
13/10:30pm 14.0 11.4 12.0 88 1.1 N 17 24 9 13 1022.6 1022.6 0.0
13/10:00pm 14.0 11.8 12.2 89 1.0 N 15 22 8 12 1022.8 1022.8 0.0
13/09:30pm 14.3 11.8 12.3 88 1.1 N 17 24 9 13 1022.8 1022.8 0.0
13/09:00pm 14.6 12.1 12.3 86 1.3 N 17 24 9 13 1022.9 1022.9 0.0
13/08:30pm 14.1 11.7 11.4 84 1.4 N 15 24 8 13 1023.2 1023.2 0.0
13/08:00pm 14.4 11.7 11.6 83 1.5 N 17 22 9 12 1023.1 1023.1 0.0
13/07:30pm 14.5 11.2 11.5 82 1.6 N 20 28 11 15 1023.2 1023.2 0.0
13/07:00pm 14.0 10.8 11.3 84 1.4 NNE 19 28 10 15 1023.0 1023.0 0.0
13/06:30pm 14.0 10.7 11.5 85 1.3 NNE 20 35 11 19 1022.9 1022.9 0.0
13/06:00pm 14.0 10.2 11.3 84 1.4 NNE 22 33 12 18 1022.8 1022.8 0.0
13/05:30pm 14.3 10.5 11.3 82 1.6 NNE 22 32 12 17 1022.7 1022.7 0.0
13/05:00pm 14.9 10.8 11.5 80 1.8 NNE 24 33 13 18 1022.7 1022.7 0.0
13/04:30pm 15.5 11.3 11.1 75 2.4 NE 24 33 13 18 1022.7 1022.7 0.0
13/04:00pm 15.6 12.1 11.0 74 2.5 NE 20 30 11 16 1022.6 1022.6 0.0
13/03:30pm 16.7 12.8 10.8 68 3.2 NE 22 32 12 17 1022.8 1022.8 0.0
13/03:00pm 16.7 13.2 10.8 68 3.2 NE 20 32 11 17 1022.8 1022.8 0.0

Other Formats:

Comma delimited format used in spreadsheet applications
http://www.bom.gov.au/fwo/IDN60801/IDN60801.95940.axf

JavaScript Object Notation format (JSON) in row-major order
http://www.bom.gov.au/fwo/IDN60801/IDN60801.95940.json